createdAt,value
2019-05-15T00:00:03.272Z,0.2000
2019-05-15T00:00:14.307Z,0.1000
2019-05-15T00:00:23.259Z,0.1000
2019-05-15T00:00:34.283Z,0.1000
2019-05-15T00:00:43.262Z,0.2000
2019-05-15T00:00:54.257Z,0.2000
2019-05-15T00:01:03.288Z,0.4000
2019-05-15T00:01:14.283Z,0.2000
2019-05-15T00:01:23.264Z,0.2000
2019-05-15T00:01:34.259Z,0.2000
2019-05-15T00:01:43.285Z,0.2000
2019-05-15T00:01:54.272Z,0.2000
2019-05-15T00:02:03.271Z,0.1000
2019-05-15T00:02:13.693Z,0.1000
2019-05-15T00:02:23.283Z,0.1000
2019-05-15T00:02:34.256Z,0.3000
2019-05-15T00:02:48.737Z,0.3000
2019-05-15T00:02:53.536Z,0.3000
2019-05-15T00:03:03.274Z,0.1000
2019-05-15T00:03:15.098Z,0.1000
2019-05-15T00:03:23.250Z,0.2000
2019-05-15T00:03:34.275Z,0.7000
2019-05-15T00:03:45.270Z,0.6000
2019-05-15T00:03:55.196Z,0.6000
2019-05-15T00:04:05.270Z,0.1000
2019-05-15T00:04:13.278Z,0.1000
2019-05-15T00:04:24.287Z,0.1000
2019-05-15T00:04:33.255Z,0.1000
2019-05-15T00:04:44.257Z,0.1000
2019-05-15T00:04:53.263Z,0.1000
2019-05-15T00:05:08.966Z,0.3000
2019-05-15T00:05:13.271Z,0.2000
2019-05-15T00:05:24.261Z,0.2000
2019-05-15T00:05:33.277Z,0.2000
2019-05-15T00:05:44.271Z,0.1000
2019-05-15T00:05:53.266Z,0.2000
2019-05-15T00:06:04.272Z,0.1000
2019-05-15T00:06:13.266Z,0.1000
2019-05-15T00:06:24.250Z,0.1000
2019-05-15T00:06:33.271Z,0.5000
2019-05-15T00:06:44.267Z,0.5000
2019-05-15T00:06:53.272Z,0.5000
2019-05-15T00:07:04.271Z,0.2000
2019-05-15T00:07:13.254Z,0.2000
2019-05-15T00:07:23.281Z,0.2000
2019-05-15T00:07:33.273Z,0.2000
2019-05-15T00:07:43.106Z,0.2000
2019-05-15T00:07:53.276Z,0.1000
2019-05-15T00:08:04.168Z,0.1000
2019-05-15T00:08:14.994Z,0.2000
2019-05-15T00:08:28.796Z,0.2000
2019-05-15T00:08:33.268Z,0.2000
2019-05-15T00:08:43.270Z,0.2000
2019-05-15T00:08:55.272Z,0.2000
2019-05-15T00:09:03.275Z,0.1000
2019-05-15T00:09:14.264Z,0.2000
2019-05-15T00:09:23.263Z,0.1000
2019-05-15T00:09:34.275Z,0.1000
2019-05-15T00:09:43.254Z,0.1000
2019-05-15T00:09:54.253Z,0.1000
2019-05-15T00:10:03.280Z,0.1000
2019-05-15T00:10:14.280Z,0.1000
2019-05-15T00:10:23.263Z,0.2000
2019-05-15T00:10:34.266Z,0.2000
2019-05-15T00:10:43.255Z,0.3000
2019-05-15T00:10:54.356Z,0.2000
2019-05-15T00:11:03.272Z,0.2000
2019-05-15T00:11:14.277Z,0.1000
2019-05-15T00:11:24.270Z,0.2000
2019-05-15T00:11:34.278Z,0.3000
2019-05-15T00:11:45.267Z,0.3000
2019-05-15T00:11:54.262Z,0.3000
2019-05-15T00:12:08.436Z,0.1000
2019-05-15T00:12:13.243Z,0.1000
2019-05-15T00:12:24.256Z,0.1000
2019-05-15T00:12:33.281Z,0.1000
2019-05-15T00:12:44.251Z,0.1000
2019-05-15T00:12:53.263Z,0.1000
2019-05-15T00:13:04.263Z,0.1000
2019-05-15T00:13:13.289Z,0.2000
2019-05-15T00:13:24.264Z,0.2000
2019-05-15T00:13:33.278Z,0.2000
2019-05-15T00:13:44.260Z,0.2000
2019-05-15T00:13:53.277Z,0.1000
2019-05-15T00:14:04.262Z,0.1000
2019-05-15T00:14:13.265Z,0.1000
2019-05-15T00:14:23.271Z,0.1000
2019-05-15T00:14:33.265Z,0.1000
2019-05-15T00:14:44.267Z,0.1000
2019-05-15T00:14:54.171Z,0.1000
2019-05-15T00:15:04.303Z,0.1000
2019-05-15T00:15:13.296Z,0.1000
2019-05-15T00:15:25.202Z,0.2000
2019-05-15T00:15:35.274Z,0.2000
2019-05-15T00:15:44.263Z,0.1000
2019-05-15T00:15:56.133Z,0.1000
2019-05-15T00:16:03.276Z,0.1000
2019-05-15T00:16:14.278Z,0.1000
2019-05-15T00:16:23.277Z,0.1000
2019-05-15T00:16:34.271Z,0.1000
2019-05-15T00:16:43.279Z,0.1000
2019-05-15T00:16:54.265Z,0.1000
2019-05-15T00:17:03.259Z,0.1000
2019-05-15T00:17:14.264Z,0.2000
2019-05-15T00:17:23.294Z,0.2000
2019-05-15T00:17:34.264Z,0.2000
2019-05-15T00:17:43.252Z,0.1000
2019-05-15T00:17:54.272Z,0.1000
2019-05-15T00:18:03.342Z,0.2000
2019-05-15T00:18:14.264Z,0.2000
2019-05-15T00:18:23.247Z,0.2000
2019-05-15T00:18:34.286Z,0.9000
2019-05-15T00:18:45.280Z,1.0000
2019-05-15T00:18:53.384Z,1.0000
2019-05-15T00:19:03.246Z,0.2000
2019-05-15T00:19:15.227Z,0.2000
2019-05-15T00:19:23.259Z,0.2000
2019-05-15T00:19:34.243Z,0.2000
2019-05-15T00:19:48.457Z,0.1000
2019-05-15T00:19:53.266Z,0.1000
2019-05-15T00:20:03.250Z,0.1000
2019-05-15T00:20:13.305Z,0.1000
2019-05-15T00:20:24.269Z,0.1000
2019-05-15T00:20:35.756Z,0.1000
2019-05-15T00:20:44.290Z,0.1000
2019-05-15T00:20:53.278Z,0.1000
2019-05-15T00:21:04.264Z,0.0000
2019-05-15T00:21:13.263Z,0.1000
2019-05-15T00:21:24.253Z,0.1000
2019-05-15T00:21:33.269Z,0.1000
2019-05-15T00:21:44.263Z,0.1000
2019-05-15T00:21:52.674Z,0.1000
2019-05-15T00:22:04.262Z,0.2000
2019-05-15T00:22:13.273Z,0.2000
2019-05-15T00:22:25.794Z,0.1000
2019-05-15T00:22:35.266Z,0.1000
2019-05-15T00:22:44.288Z,0.1000
2019-05-15T00:22:54.236Z,0.1000
2019-05-15T00:23:08.143Z,0.2000
2019-05-15T00:23:13.245Z,0.2000
2019-05-15T00:23:24.276Z,0.3000
2019-05-15T00:23:35.310Z,0.2000
2019-05-15T00:23:43.266Z,0.1000
2019-05-15T00:23:58.495Z,0.1000
2019-05-15T00:24:03.271Z,0.1000
2019-05-15T00:24:14.266Z,0.1000
2019-05-15T00:24:23.269Z,0.1000
2019-05-15T00:24:34.257Z,0.1000
2019-05-15T00:24:43.276Z,0.1000
2019-05-15T00:24:54.260Z,0.1000
2019-05-15T00:25:03.283Z,0.1000
2019-05-15T00:25:14.266Z,0.1000
2019-05-15T00:25:23.268Z,0.1000
2019-05-15T00:25:34.270Z,0.1000
2019-05-15T00:25:43.266Z,0.3000
2019-05-15T00:25:54.270Z,0.2000
2019-05-15T00:26:03.264Z,0.3000
2019-05-15T00:26:14.277Z,0.2000
2019-05-15T00:26:23.250Z,0.2000
2019-05-15T00:26:34.279Z,0.1000
2019-05-15T00:26:45.265Z,0.1000
2019-05-15T00:26:54.250Z,0.1000
2019-05-15T00:27:03.293Z,0.2000
2019-05-15T00:27:14.260Z,0.2000
2019-05-15T00:27:23.731Z,0.2000
2019-05-15T00:27:34.264Z,0.3000
2019-05-15T00:27:45.271Z,0.2000
2019-05-15T00:27:53.281Z,0.4000
2019-05-15T00:28:05.252Z,0.3000
2019-05-15T00:28:13.267Z,0.4000
2019-05-15T00:28:24.279Z,0.2000
2019-05-15T00:28:33.264Z,0.1000
2019-05-15T00:28:44.256Z,0.1000
2019-05-15T00:28:53.264Z,0.1000
2019-05-15T00:29:12.849Z,0.1000
2019-05-15T00:29:16.250Z,0.1000
2019-05-15T00:29:24.285Z,0.1000
2019-05-15T00:29:33.249Z,0.2000
2019-05-15T00:29:44.267Z,0.2000
2019-05-15T00:29:53.271Z,0.2000
2019-05-15T00:30:04.277Z,0.1000
2019-05-15T00:30:13.261Z,0.1000
2019-05-15T00:30:23.689Z,0.1000
2019-05-15T00:30:33.258Z,0.2000
2019-05-15T00:30:44.260Z,0.2000
2019-05-15T00:30:54.186Z,0.2000
2019-05-15T00:31:04.261Z,0.1000
2019-05-15T00:31:13.280Z,0.1000
2019-05-15T00:31:25.138Z,0.1000
2019-05-15T00:31:38.666Z,0.1000
2019-05-15T00:31:43.263Z,0.1000
2019-05-15T00:31:54.273Z,0.1000
2019-05-15T00:32:03.279Z,0.1000
2019-05-15T00:32:14.278Z,0.1000
2019-05-15T00:32:23.254Z,0.1000
2019-05-15T00:32:34.274Z,0.1000
2019-05-15T00:32:43.258Z,0.1000
2019-05-15T00:32:54.257Z,0.2000
2019-05-15T00:33:09.029Z,0.1000
2019-05-15T00:33:14.257Z,0.1000
2019-05-15T00:33:23.255Z,0.1000
2019-05-15T00:33:34.257Z,0.2000
2019-05-15T00:33:43.257Z,0.2000
2019-05-15T00:33:54.275Z,0.2000
2019-05-15T00:34:03.298Z,0.1000
2019-05-15T00:34:14.271Z,0.1000
2019-05-15T00:34:23.268Z,0.1000
2019-05-15T00:34:33.159Z,0.1000
2019-05-15T00:34:43.283Z,0.1000
2019-05-15T00:34:54.258Z,0.2000
2019-05-15T00:35:06.262Z,0.1000
2019-05-15T00:35:15.259Z,0.1000
2019-05-15T00:35:28.025Z,0.1000
2019-05-15T00:35:34.264Z,0.1000
2019-05-15T00:35:44.285Z,0.1000
2019-05-15T00:35:53.254Z,0.2000
2019-05-15T00:36:04.263Z,0.1000
2019-05-15T00:36:13.277Z,0.2000
2019-05-15T00:36:24.286Z,0.2000
2019-05-15T00:36:33.265Z,0.2000
2019-05-15T00:36:44.244Z,0.2000
2019-05-15T00:36:58.274Z,0.1000
2019-05-15T00:37:04.268Z,0.1000
2019-05-15T00:37:13.248Z,0.1000
2019-05-15T00:37:24.274Z,0.2000
2019-05-15T00:37:33.270Z,0.2000
2019-05-15T00:37:44.267Z,0.1000
2019-05-15T00:37:53.277Z,0.1000
2019-05-15T00:38:04.258Z,0.2000
2019-05-15T00:38:13.261Z,0.2000
2019-05-15T00:38:24.275Z,0.2000
2019-05-15T00:38:35.276Z,0.2000
2019-05-15T00:38:44.268Z,0.1000
2019-05-15T00:38:54.297Z,0.2000
2019-05-15T00:39:04.256Z,0.2000
2019-05-15T00:39:13.253Z,0.1000
2019-05-15T00:39:28.374Z,0.1000
2019-05-15T00:39:33.267Z,0.2000
2019-05-15T00:39:45.077Z,0.2000
2019-05-15T00:39:56.363Z,0.2000
2019-05-15T00:40:03.275Z,0.2000
2019-05-15T00:40:18.171Z,0.1000
2019-05-15T00:40:23.246Z,0.1000
2019-05-15T00:40:34.266Z,0.1000
2019-05-15T00:40:43.252Z,0.2000
2019-05-15T00:40:54.253Z,0.1000
2019-05-15T00:41:03.257Z,0.1000
2019-05-15T00:41:14.248Z,0.1000
2019-05-15T00:41:23.270Z,0.1000
2019-05-15T00:41:47.570Z,0.1000
2019-05-15T00:41:51.431Z,0.1000
2019-05-15T00:41:54.774Z,0.1000
2019-05-15T00:42:03.267Z,0.2000
2019-05-15T00:42:14.244Z,0.1000
2019-05-15T00:42:28.459Z,0.1000
2019-05-15T00:42:34.262Z,0.1000
2019-05-15T00:42:43.262Z,0.1000
2019-05-15T00:42:54.262Z,0.1000
2019-05-15T00:43:03.256Z,0.1000
2019-05-15T00:43:14.257Z,0.2000
2019-05-15T00:43:23.251Z,0.3000
2019-05-15T00:43:34.261Z,0.3000
2019-05-15T00:43:43.262Z,0.2000
2019-05-15T00:43:55.304Z,0.2000
2019-05-15T00:44:04.016Z,0.2000
2019-05-15T00:44:13.287Z,0.2000
2019-05-15T00:44:23.260Z,0.2000
2019-05-15T00:44:34.270Z,0.2000
2019-05-15T00:44:46.019Z,0.2000
2019-05-15T00:44:54.844Z,0.1000
2019-05-15T00:45:06.007Z,0.1000
2019-05-15T00:45:13.276Z,0.1000
2019-05-15T00:45:24.274Z,0.1000
2019-05-15T00:45:33.268Z,0.2000
2019-05-15T00:45:44.523Z,0.2000
2019-05-15T00:45:53.252Z,0.2000
2019-05-15T00:46:04.259Z,0.2000
2019-05-15T00:46:16.321Z,0.2000
2019-05-15T00:46:24.256Z,0.2000
2019-05-15T00:46:33.268Z,0.1000
2019-05-15T00:46:44.259Z,0.1000
2019-05-15T00:46:53.265Z,0.1000
2019-05-15T00:47:04.278Z,0.1000
2019-05-15T00:47:13.250Z,0.1000
2019-05-15T00:47:24.268Z,0.1000
2019-05-15T00:47:33.268Z,0.1000
2019-05-15T00:47:44.262Z,0.2000
2019-05-15T00:47:53.247Z,0.1000
2019-05-15T00:48:04.246Z,0.1000
2019-05-15T00:48:13.248Z,0.1000
2019-05-15T00:48:23.165Z,0.1000
2019-05-15T00:48:35.269Z,0.1000
2019-05-15T00:48:44.282Z,0.1000
2019-05-15T00:48:54.157Z,0.1000
2019-05-15T00:49:04.256Z,0.2000
2019-05-15T00:49:15.285Z,0.1000
2019-05-15T00:49:25.048Z,0.2000
2019-05-15T00:49:38.106Z,0.1000
2019-05-15T00:49:43.275Z,0.2000
2019-05-15T00:49:54.284Z,0.1000
2019-05-15T00:50:03.275Z,0.2000
2019-05-15T00:50:14.244Z,0.2000
2019-05-15T00:50:23.256Z,0.2000
2019-05-15T00:50:34.301Z,0.2000
2019-05-15T00:50:43.254Z,0.1000
2019-05-15T00:50:54.282Z,0.1000
2019-05-15T00:51:03.267Z,0.1000
2019-05-15T00:51:14.837Z,0.2000
2019-05-15T00:51:23.266Z,0.2000
2019-05-15T00:51:34.255Z,0.2000
2019-05-15T00:51:43.263Z,0.2000
2019-05-15T00:51:54.267Z,0.1000
2019-05-15T00:52:03.283Z,0.2000
2019-05-15T00:52:14.245Z,0.2000
2019-05-15T00:52:24.695Z,0.2000
2019-05-15T00:52:33.048Z,0.2000
2019-05-15T00:52:44.269Z,0.1000
2019-05-15T00:52:54.268Z,0.1000
2019-05-15T00:53:03.266Z,0.1000
2019-05-15T00:53:14.286Z,0.1000
2019-05-15T00:53:28.116Z,0.1000
2019-05-15T00:53:34.270Z,0.1000
2019-05-15T00:53:48.157Z,0.1000
2019-05-15T00:53:53.254Z,0.2000
2019-05-15T00:54:05.271Z,0.1000
2019-05-15T00:54:13.282Z,0.2000
2019-05-15T00:54:24.264Z,0.1000
2019-05-15T00:54:33.276Z,0.1000
2019-05-15T00:54:44.266Z,0.1000
2019-05-15T00:54:53.262Z,0.2000
2019-05-15T00:55:04.274Z,0.3000
2019-05-15T00:55:19.040Z,0.3000
2019-05-15T00:55:24.267Z,0.3000
2019-05-15T00:55:33.267Z,0.2000
2019-05-15T00:55:44.276Z,0.2000
2019-05-15T00:55:53.270Z,0.2000
2019-05-15T00:56:04.268Z,0.1000
2019-05-15T00:56:13.287Z,0.1000
2019-05-15T00:56:24.264Z,0.2000
2019-05-15T00:56:33.268Z,0.2000
2019-05-15T00:56:44.268Z,0.2000
2019-05-15T00:56:55.288Z,0.1000
2019-05-15T00:57:03.161Z,0.1000
2019-05-15T00:57:13.255Z,0.1000
2019-05-15T00:57:24.293Z,0.1000
2019-05-15T00:57:34.169Z,0.2000
2019-05-15T00:57:44.264Z,0.2000
2019-05-15T00:57:55.252Z,0.1000
2019-05-15T00:58:05.042Z,0.1000
2019-05-15T00:58:14.769Z,0.1000
2019-05-15T00:58:23.311Z,0.2000
2019-05-15T00:58:34.279Z,0.2000
2019-05-15T00:58:43.281Z,0.2000
2019-05-15T00:58:54.253Z,0.2000
2019-05-15T00:59:03.273Z,0.1000
2019-05-15T00:59:24.011Z,0.1000
2019-05-15T00:59:30.014Z,0.2000
2019-05-15T00:59:33.252Z,0.2000
2019-05-15T00:59:43.245Z,0.2000
2019-05-15T00:59:54.279Z,0.1000
2019-05-15T01:00:03.273Z,0.1000
2019-05-15T01:00:14.259Z,0.1000
2019-05-15T01:00:23.267Z,0.1000
2019-05-15T01:00:34.275Z,0.1000
2019-05-15T01:00:43.266Z,0.1000
2019-05-15T01:00:53.261Z,0.1000
2019-05-15T01:01:08.214Z,0.1000
2019-05-15T01:01:14.268Z,0.1000
2019-05-15T01:01:23.278Z,0.1000
2019-05-15T01:01:33.483Z,0.1000
2019-05-15T01:01:44.205Z,0.1000
2019-05-15T01:01:54.267Z,0.2000
2019-05-15T01:02:03.260Z,0.1000
2019-05-15T01:02:14.261Z,0.1000
2019-05-15T01:02:28.526Z,0.1000
2019-05-15T01:02:34.268Z,0.1000
2019-05-15T01:02:45.268Z,0.1000
2019-05-15T01:02:53.258Z,0.1000
2019-05-15T01:03:05.273Z,0.1000
2019-05-15T01:03:13.294Z,0.1000
2019-05-15T01:03:24.269Z,0.2000
2019-05-15T01:03:33.267Z,0.2000
2019-05-15T01:03:44.274Z,0.3000
2019-05-15T01:03:53.259Z,0.3000
2019-05-15T01:04:04.261Z,0.1000
2019-05-15T01:04:13.269Z,0.1000
2019-05-15T01:04:28.752Z,0.1000
2019-05-15T01:04:33.253Z,0.1000
2019-05-15T01:04:44.275Z,0.1000
2019-05-15T01:04:53.246Z,0.1000
2019-05-15T01:05:04.270Z,0.1000
2019-05-15T01:05:13.272Z,0.1000
2019-05-15T01:05:24.284Z,0.1000
2019-05-15T01:05:33.253Z,0.1000
2019-05-15T01:05:44.262Z,0.2000
2019-05-15T01:05:53.268Z,0.1000
2019-05-15T01:06:04.273Z,0.1000
2019-05-15T01:06:13.275Z,0.1000
2019-05-15T01:06:24.266Z,0.1000
2019-05-15T01:06:33.273Z,0.1000
2019-05-15T01:06:43.142Z,0.1000
2019-05-15T01:06:53.249Z,0.1000
2019-05-15T01:07:04.249Z,0.1000
2019-05-15T01:07:14.766Z,0.2000
2019-05-15T01:07:24.278Z,0.3000
2019-05-15T01:07:34.088Z,0.3000
2019-05-15T01:07:43.471Z,0.3000
2019-05-15T01:07:53.263Z,0.1000
2019-05-15T01:08:04.298Z,0.1000
2019-05-15T01:08:13.252Z,0.2000
2019-05-15T01:08:23.796Z,0.1000
2019-05-15T01:08:35.260Z,0.4000
2019-05-15T01:08:44.249Z,0.3000
2019-05-15T01:08:56.192Z,0.2000
2019-05-15T01:09:03.271Z,0.2000
2019-05-15T01:09:15.263Z,0.2000
2019-05-15T01:09:23.260Z,0.2000
2019-05-15T01:09:34.284Z,0.1000
2019-05-15T01:09:43.272Z,0.2000
2019-05-15T01:09:54.245Z,0.1000
2019-05-15T01:10:03.266Z,0.2000
2019-05-15T01:10:14.256Z,0.2000
2019-05-15T01:10:23.274Z,0.2000
2019-05-15T01:10:34.253Z,0.3000
2019-05-15T01:10:43.280Z,0.3000
2019-05-15T01:10:54.267Z,0.1000
2019-05-15T01:11:03.263Z,0.1000
2019-05-15T01:11:14.256Z,0.1000
2019-05-15T01:11:23.289Z,0.1000
2019-05-15T01:11:34.259Z,0.1000
2019-05-15T01:11:43.274Z,0.1000
2019-05-15T01:11:54.284Z,0.1000
2019-05-15T01:12:03.273Z,0.2000
2019-05-15T01:12:14.253Z,0.1000
2019-05-15T01:12:23.269Z,0.2000
2019-05-15T01:12:33.066Z,0.2000
2019-05-15T01:12:43.263Z,0.2000
2019-05-15T01:12:54.275Z,0.1000
2019-05-15T01:13:04.100Z,0.1000
2019-05-15T01:13:14.275Z,0.3000
2019-05-15T01:13:23.276Z,0.3000
2019-05-15T01:13:34.276Z,0.3000
2019-05-15T01:13:43.281Z,0.2000
2019-05-15T01:13:55.242Z,0.1000
2019-05-15T01:14:03.264Z,0.1000
2019-05-15T01:14:14.268Z,0.1000
2019-05-15T01:14:25.274Z,0.1000
2019-05-15T01:14:33.275Z,0.1000
2019-05-15T01:14:45.284Z,0.1000
2019-05-15T01:14:53.286Z,0.2000
2019-05-15T01:15:04.273Z,0.1000
2019-05-15T01:15:13.277Z,0.1000
2019-05-15T01:15:24.293Z,0.1000
2019-05-15T01:15:33.281Z,0.1000
2019-05-15T01:15:44.255Z,0.1000
2019-05-15T01:15:53.265Z,0.2000
2019-05-15T01:16:04.281Z,0.2000
2019-05-15T01:16:13.401Z,0.2000
2019-05-15T01:16:24.290Z,0.1000
2019-05-15T01:16:33.267Z,0.1000
2019-05-15T01:16:44.274Z,0.1000
2019-05-15T01:16:53.262Z,0.2000
2019-05-15T01:17:04.261Z,0.1000
2019-05-15T01:17:13.275Z,0.1000
2019-05-15T01:17:24.264Z,0.1000
2019-05-15T01:17:33.250Z,0.1000
2019-05-15T01:17:44.281Z,0.1000
2019-05-15T01:17:53.262Z,0.1000
2019-05-15T01:18:04.248Z,0.1000
2019-05-15T01:18:14.157Z,0.1000
2019-05-15T01:18:23.331Z,0.1000
2019-05-15T01:18:33.247Z,0.2000
2019-05-15T01:18:45.157Z,0.2000
2019-05-15T01:18:53.284Z,0.2000
2019-05-15T01:19:04.271Z,0.2000
2019-05-15T01:19:15.032Z,0.2000
2019-05-15T01:19:24.329Z,0.2000
2019-05-15T01:19:35.281Z,0.2000
2019-05-15T01:19:44.254Z,0.2000
2019-05-15T01:19:55.277Z,0.2000
2019-05-15T01:20:03.271Z,0.2000
2019-05-15T01:20:15.278Z,0.1000
2019-05-15T01:20:23.268Z,0.0000
2019-05-15T01:20:34.286Z,0.1000
2019-05-15T01:20:43.253Z,0.1000
2019-05-15T01:20:54.256Z,0.2000
2019-05-15T01:21:03.270Z,0.2000
2019-05-15T01:21:14.262Z,0.2000
2019-05-15T01:21:27.939Z,0.1000
2019-05-15T01:21:34.251Z,0.1000
2019-05-15T01:21:43.275Z,0.1000
2019-05-15T01:21:54.272Z,0.1000
2019-05-15T01:22:03.272Z,0.2000
2019-05-15T01:22:14.261Z,0.6000
2019-05-15T01:22:23.278Z,0.7000
2019-05-15T01:22:33.937Z,0.5000
2019-05-15T01:22:43.276Z,0.4000
2019-05-15T01:22:54.278Z,0.1000
2019-05-15T01:23:02.710Z,0.1000
2019-05-15T01:23:18.887Z,0.1000
2019-05-15T01:23:23.259Z,0.1000
2019-05-15T01:23:34.268Z,0.1000
2019-05-15T01:23:43.261Z,0.2000
2019-05-15T01:23:54.261Z,0.2000
2019-05-15T01:24:03.253Z,0.2000
2019-05-15T01:24:18.986Z,0.1000
2019-05-15T01:24:23.260Z,0.1000
2019-05-15T01:24:34.277Z,0.1000
2019-05-15T01:24:44.123Z,0.1000
2019-05-15T01:24:54.285Z,0.1000
2019-05-15T01:25:03.257Z,0.1000
2019-05-15T01:25:14.279Z,0.1000
2019-05-15T01:25:23.273Z,0.1000
2019-05-15T01:25:35.209Z,0.1000
2019-05-15T01:25:45.258Z,0.1000
2019-05-15T01:25:54.283Z,0.1000
2019-05-15T01:26:08.330Z,0.1000
2019-05-15T01:26:14.259Z,0.3000
2019-05-15T01:26:25.285Z,0.3000
2019-05-15T01:26:33.272Z,0.2000
2019-05-15T01:26:46.173Z,0.1000
2019-05-15T01:26:53.145Z,0.1000
2019-05-15T01:27:04.266Z,0.1000
2019-05-15T01:27:13.275Z,0.2000
2019-05-15T01:27:24.251Z,0.2000
2019-05-15T01:27:33.297Z,0.2000
2019-05-15T01:27:44.286Z,0.2000
2019-05-15T01:27:53.269Z,0.2000
2019-05-15T01:28:04.274Z,0.2000
2019-05-15T01:28:13.259Z,0.1000
2019-05-15T01:28:24.267Z,0.1000
2019-05-15T01:28:33.297Z,0.1000
2019-05-15T01:28:44.267Z,0.1000
2019-05-15T01:28:53.251Z,0.1000
2019-05-15T01:29:04.280Z,0.1000
2019-05-15T01:29:13.302Z,0.1000
2019-05-15T01:29:36.515Z,0.1000
2019-05-15T01:29:43.817Z,0.2000
2019-05-15T01:29:45.161Z,0.2000
2019-05-15T01:29:53.274Z,0.2000
2019-05-15T01:30:03.124Z,0.2000
2019-05-15T01:30:13.286Z,0.1000
2019-05-15T01:30:24.261Z,0.1000
2019-05-15T01:30:33.250Z,0.1000
2019-05-15T01:30:45.150Z,0.2000
2019-05-15T01:30:54.351Z,0.2000
2019-05-15T01:31:05.091Z,0.2000
2019-05-15T01:31:13.251Z,0.2000
2019-05-15T01:31:24.274Z,0.1000
2019-05-15T01:31:35.256Z,0.1000
2019-05-15T01:31:45.117Z,0.1000
2019-05-15T01:31:54.346Z,0.2000
2019-05-15T01:32:03.267Z,0.1000
2019-05-15T01:32:15.264Z,0.1000
2019-05-15T01:32:23.278Z,0.1000
2019-05-15T01:32:34.274Z,0.1000
2019-05-15T01:32:43.264Z,0.1000
2019-05-15T01:32:54.266Z,0.2000
2019-05-15T01:33:03.282Z,0.1000
2019-05-15T01:33:14.271Z,0.1000
2019-05-15T01:33:23.256Z,0.1000
2019-05-15T01:33:34.258Z,0.2000
2019-05-15T01:33:43.258Z,0.2000
2019-05-15T01:33:54.272Z,0.2000
2019-05-15T01:34:03.309Z,0.2000
2019-05-15T01:34:13.897Z,0.2000
2019-05-15T01:34:23.270Z,0.1000
2019-05-15T01:34:34.279Z,0.1000
2019-05-15T01:34:43.260Z,0.1000
2019-05-15T01:34:54.262Z,0.1000
2019-05-15T01:35:03.823Z,0.2000
2019-05-15T01:35:14.261Z,0.2000
2019-05-15T01:35:23.259Z,0.2000
2019-05-15T01:35:34.288Z,0.2000
2019-05-15T01:35:43.240Z,0.2000
2019-05-15T01:35:54.271Z,0.1000
2019-05-15T01:36:03.291Z,0.1000
2019-05-15T01:36:13.156Z,0.2000
2019-05-15T01:36:23.276Z,0.2000
2019-05-15T01:36:34.279Z,0.2000
2019-05-15T01:36:43.247Z,0.1000
2019-05-15T01:36:55.751Z,0.1000
2019-05-15T01:37:05.272Z,0.1000
2019-05-15T01:37:14.273Z,0.1000
2019-05-15T01:37:25.262Z,0.1000
2019-05-15T01:37:33.259Z,0.1000
2019-05-15T01:37:45.273Z,0.0000
2019-05-15T01:37:53.274Z,0.1000
2019-05-15T01:38:04.282Z,0.1000
2019-05-15T01:38:13.268Z,0.2000
2019-05-15T01:38:24.258Z,0.2000
2019-05-15T01:38:33.262Z,0.1000
2019-05-15T01:38:44.272Z,0.3000
2019-05-15T01:38:53.285Z,0.3000
2019-05-15T01:39:04.315Z,0.3000
2019-05-15T01:39:13.267Z,0.1000
2019-05-15T01:39:24.257Z,0.1000
2019-05-15T01:39:33.287Z,0.1000
2019-05-15T01:39:44.282Z,0.1000
2019-05-15T01:39:53.252Z,0.1000
2019-05-15T01:40:04.256Z,0.1000
2019-05-15T01:40:13.248Z,0.1000
2019-05-15T01:40:24.264Z,0.2000
2019-05-15T01:40:33.265Z,0.2000
2019-05-15T01:40:43.757Z,0.1000
2019-05-15T01:40:53.261Z,0.1000
2019-05-15T01:41:04.249Z,0.1000
2019-05-15T01:41:14.137Z,0.1000
2019-05-15T01:41:24.263Z,0.1000
2019-05-15T01:41:33.269Z,0.1000
2019-05-15T01:41:43.470Z,0.2000
2019-05-15T01:41:53.310Z,0.2000
2019-05-15T01:42:05.391Z,0.2000
2019-05-15T01:42:13.263Z,0.2000
2019-05-15T01:42:24.256Z,0.1000
2019-05-15T01:42:33.748Z,0.1000
2019-05-15T01:42:44.258Z,0.1000
2019-05-15T01:42:55.265Z,0.2000
2019-05-15T01:43:03.255Z,0.2000
2019-05-15T01:43:14.285Z,0.1000
2019-05-15T01:43:23.275Z,0.1000
2019-05-15T01:43:34.309Z,0.1000
2019-05-15T01:43:43.268Z,0.1000
2019-05-15T01:43:54.261Z,0.1000
2019-05-15T01:44:03.275Z,1.0000
2019-05-15T01:44:14.275Z,1.0000
2019-05-15T01:44:23.283Z,1.0000
2019-05-15T01:44:34.278Z,0.1000
2019-05-15T01:44:43.308Z,0.1000
2019-05-15T01:44:54.288Z,0.2000
2019-05-15T01:45:03.278Z,0.2000
2019-05-15T01:45:14.289Z,0.2000
2019-05-15T01:45:23.292Z,0.1000
2019-05-15T01:45:34.287Z,0.1000
2019-05-15T01:45:43.274Z,0.2000
2019-05-15T01:45:54.279Z,0.2000
2019-05-15T01:46:03.262Z,0.2000
2019-05-15T01:46:14.261Z,0.2000
2019-05-15T01:46:24.712Z,0.2000
2019-05-15T01:46:33.319Z,0.2000
2019-05-15T01:46:43.270Z,0.2000
2019-05-15T01:46:53.149Z,0.2000
2019-05-15T01:47:03.262Z,0.2000
2019-05-15T01:47:14.278Z,0.2000
2019-05-15T01:47:25.269Z,0.2000
2019-05-15T01:47:34.291Z,0.2000
2019-05-15T01:47:45.309Z,0.5000
2019-05-15T01:47:53.274Z,0.5000
2019-05-15T01:48:05.273Z,0.6000
2019-05-15T01:48:13.277Z,0.2000
2019-05-15T01:48:24.274Z,0.2000
2019-05-15T01:48:33.263Z,0.2000
2019-05-15T01:48:44.287Z,0.1000
2019-05-15T01:48:53.255Z,0.1000
2019-05-15T01:49:04.262Z,0.2000
2019-05-15T01:49:13.284Z,0.2000
2019-05-15T01:49:24.264Z,0.2000
2019-05-15T01:49:33.256Z,0.1000
2019-05-15T01:49:44.277Z,0.1000
2019-05-15T01:49:53.252Z,0.2000
2019-05-15T01:50:04.287Z,0.2000
2019-05-15T01:50:13.260Z,0.2000
2019-05-15T01:50:24.272Z,0.1000
2019-05-15T01:50:33.279Z,0.1000
2019-05-15T01:50:44.267Z,0.1000
2019-05-15T01:50:53.264Z,0.1000
2019-05-15T01:51:04.267Z,0.1000
2019-05-15T01:51:13.256Z,0.2000
2019-05-15T01:51:24.281Z,0.2000
2019-05-15T01:51:33.257Z,0.1000
2019-05-15T01:51:47.818Z,0.1000
2019-05-15T01:51:53.260Z,0.1000
2019-05-15T01:52:03.106Z,0.1000
2019-05-15T01:52:14.289Z,0.1000
2019-05-15T01:52:24.286Z,0.1000
2019-05-15T01:52:33.261Z,0.1000
2019-05-15T01:52:44.262Z,0.1000
2019-05-15T01:52:58.479Z,0.1000
2019-05-15T01:53:04.269Z,0.1000
2019-05-15T01:53:16.089Z,0.1000
2019-05-15T01:53:23.254Z,0.1000
2019-05-15T01:53:35.756Z,0.1000
2019-05-15T01:53:43.279Z,0.1000
2019-05-15T01:53:55.247Z,0.1000
2019-05-15T01:54:03.269Z,0.1000
2019-05-15T01:54:14.289Z,0.1000
2019-05-15T01:54:23.284Z,0.1000
2019-05-15T01:54:34.259Z,0.1000
2019-05-15T01:54:43.249Z,0.1000
2019-05-15T01:54:58.238Z,0.1000
2019-05-15T01:55:08.971Z,0.1000
2019-05-15T01:55:14.264Z,0.1000
2019-05-15T01:55:23.265Z,0.1000
2019-05-15T01:55:34.275Z,0.1000
2019-05-15T01:55:48.332Z,0.1000
2019-05-15T01:55:54.279Z,0.2000
2019-05-15T01:56:03.242Z,0.2000
2019-05-15T01:56:14.269Z,0.2000
2019-05-15T01:56:23.281Z,0.1000
2019-05-15T01:56:34.273Z,0.1000
2019-05-15T01:56:43.284Z,0.1000
2019-05-15T01:56:54.269Z,0.1000
2019-05-15T01:57:03.273Z,0.1000
2019-05-15T01:57:14.280Z,0.2000
2019-05-15T01:57:23.244Z,0.2000
2019-05-15T01:57:33.119Z,0.2000
2019-05-15T01:57:43.281Z,0.1000
2019-05-15T01:57:54.271Z,0.1000
2019-05-15T01:58:03.255Z,0.2000
2019-05-15T01:58:15.162Z,0.2000
2019-05-15T01:58:25.264Z,0.2000
2019-05-15T01:58:34.268Z,0.2000
2019-05-15T01:58:45.264Z,0.1000
2019-05-15T01:58:53.270Z,0.1000
2019-05-15T01:59:04.276Z,0.2000
2019-05-15T01:59:13.262Z,0.3000
2019-05-15T01:59:24.243Z,0.3000
2019-05-15T01:59:33.257Z,0.2000
2019-05-15T01:59:56.540Z,0.2000
2019-05-15T01:59:57.407Z,0.2000
2019-05-15T02:00:03.309Z,0.1000
2019-05-15T02:00:13.275Z,0.2000
2019-05-15T02:00:24.249Z,0.1000
2019-05-15T02:00:33.249Z,0.1000
2019-05-15T02:00:44.281Z,0.1000
2019-05-15T02:00:52.706Z,0.1000
2019-05-15T02:01:04.275Z,0.1000
2019-05-15T02:01:13.335Z,0.1000
2019-05-15T02:01:23.705Z,0.1000
2019-05-15T02:01:33.274Z,0.1000
2019-05-15T02:01:44.253Z,0.1000
2019-05-15T02:01:53.259Z,0.1000
2019-05-15T02:02:03.141Z,0.2000
2019-05-15T02:02:13.261Z,0.1000
2019-05-15T02:02:24.289Z,0.1000
2019-05-15T02:02:34.101Z,0.1000
2019-05-15T02:02:44.245Z,0.1000
2019-05-15T02:02:55.257Z,0.1000
2019-05-15T02:03:05.044Z,0.2000
2019-05-15T02:03:13.255Z,0.2000
2019-05-15T02:03:24.248Z,0.2000
2019-05-15T02:03:35.518Z,0.2000
2019-05-15T02:03:43.272Z,0.2000
2019-05-15T02:03:54.284Z,0.1000
2019-05-15T02:04:03.253Z,0.1000
2019-05-15T02:04:14.266Z,0.1000
2019-05-15T02:04:23.272Z,0.1000
2019-05-15T02:04:34.276Z,0.1000
2019-05-15T02:04:43.275Z,0.1000